Victory, Vermont
Current Conditions -  °F | °C
As of 4:55 AM on Thursday 23 Oct 2014 (Local Time) from KCDA Reporting Station
Light Rain Light Rain  
Wind Chill: 39°   Ceiling: 2200
Heat Index: 46°   Visibility: 10mi
Dew Point: 39°   Wind: 17mph
Humidity: 75%   Direction: 330°NNW
Pressure: 29.97"   Gusts: 22mph
Location:  44.5627°N, 71.7775°W
Report Text: KCDA 230855Z AUTO 33015G19KT 10SM -RA BKN022 OVC028 08/04 A2997 RMK AO2 T00800038
Loading
Personal Weather Stations






























Interactive Weather Map
Tropical Storm Tracking
New forecast layout! Learn more

10-Day Weather Forecast

Advertisements
Track Severe Weather on mobile